KCUH/CUH METAR and TAF weather

Enter ICAO airport designator
Station Type Date Time Source
KCUH METAR 2022/06/30 01:15 UTC NOAA

KCUH 300115Z AUTO 15004KT 10SM CLR 29/14 A3009 RMK AO2 T02900135


Station Type Date Time Source
KCUH Decoded METAR 2022/06/30 01:15 UTC NOAA

Cushing, Cushing Municipal Airport, OK, United States (KCUH) 35-56-59N 096-46-22W
Jun 29, 2022 - 09:15 PM EDT / 2022.06.30 0115 UTC
Wind: from the SSE (150 degrees) at 5 MPH (4 KT):0
Visibility: 10 mile(s):0
Sky conditions: clear
Temperature: 84.2 F (29.0 C)
Dew Point: 56.3 F (13.5 C)
Relative Humidity: 38%
Pressure (altimeter): 30.09 in. Hg (1018 hPa)
ob: KCUH 300115Z AUTO 15004KT 10SM CLR 29/14 A3009 RMK AO2 T02900135
cycle: 1

Station Type Date Time Source
KCUH TAF UTC NOAA

Error!

Example: see airport list